Time;durP1;ratioP1;P1;durP2;ratioP2;P2;SDS_P1;SDS_P2;PMS_P1;PMS_P2;Temp;Humidity;BMP_temperature;BMP_pressure;BME280_temperature;BME280_humidity;BME280_pressure;Samples;Min_cycle;Max_cycle;Signal;HPM_P1;HPM_P2
2021/09/29 00:01:21;;;;;;;58.33;2.70;;;12.50;1.00;;;;;;5032353;28;20940;-69
2021/09/29 00:03:48;;;;;;;58.20;2.70;;;12.50;1.00;;;;;;5032016;28;21005;-69
2021/09/29 00:06:15;;;;;;;58.40;2.80;;;12.50;1.00;;;;;;5031688;28;20528;-69
2021/09/29 00:08:42;;;;;;;59.00;3.20;;;12.50;1.00;;;;;;5032240;28;20560;-69
2021/09/29 00:11:10;;;;;;;58.43;2.73;;;12.60;1.00;;;;;;5032184;28;20445;-69
2021/09/29 00:13:38;;;;;;;58.50;2.90;;;12.60;1.00;;;;;;5032075;28;20525;-69
2021/09/29 00:16:05;;;;;;;58.53;2.80;;;12.60;1.00;;;;;;5031615;28;20456;-70
2021/09/29 00:18:32;;;;;;;58.33;2.80;;;12.50;1.00;;;;;;5031911;28;20549;-69
2021/09/29 00:20:59;;;;;;;58.67;3.10;;;12.50;1.00;;;;;;5031592;28;20491;-69
2021/09/29 00:23:25;;;;;;;58.60;3.00;;;12.50;1.00;;;;;;5032062;28;20481;-69
2021/09/29 00:25:52;;;;;;;58.50;2.80;;;12.50;1.00;;;;;;5031494;28;21007;-70
2021/09/29 00:28:20;;;;;;;58.57;3.00;;;12.50;1.00;;;;;;5031870;28;20540;-70
2021/09/29 00:31:02;;;;;;;58.70;3.30;;;12.50;1.00;;;;;;5031729;28;20462;-69
2021/09/29 00:33:29;;;;;;;58.47;2.80;;;12.60;1.00;;;;;;5031477;28;20972;-71
2021/09/29 00:35:56;;;;;;;58.37;3.03;;;12.60;1.00;;;;;;5031321;28;20450;-70
2021/09/29 00:38:23;;;;;;;58.33;2.80;;;12.60;1.00;;;;;;5031652;28;20504;-70
2021/09/29 00:40:50;;;;;;;58.47;2.80;;;12.70;1.00;;;;;;5031634;28;20925;-70
2021/09/29 00:43:17;;;;;;;58.33;3.00;;;12.70;1.00;;;;;;5031570;28;20860;-70
2021/09/29 00:45:45;;;;;;;58.33;2.80;;;12.70;1.00;;;;;;5031184;28;20538;-70
2021/09/29 00:48:12;;;;;;;58.43;2.97;;;12.70;1.00;;;;;;5031267;28;20511;-70
2021/09/29 00:50:39;;;;;;;58.67;3.00;;;12.60;1.00;;;;;;5031623;28;20536;-70
2021/09/29 00:53:06;;;;;;;58.27;2.80;;;12.60;1.00;;;;;;5031778;28;20542;-70
2021/09/29 00:55:33;;;;;;;58.33;3.13;;;12.60;1.00;;;;;;5031252;28;20541;-70
2021/09/29 00:58:00;;;;;;;58.37;3.20;;;12.60;1.00;;;;;;5031389;28;20491;-70
2021/09/29 01:00:27;;;;;;;58.43;2.77;;;12.60;1.00;;;;;;5031151;28;20922;-70
2021/09/29 01:02:55;;;;;;;58.37;2.77;;;12.60;1.00;;;;;;5031459;28;20481;-70
2021/09/29 01:05:22;;;;;;;58.43;2.90;;;12.50;1.00;;;;;;5030999;28;20452;-71
2021/09/29 01:07:54;;;;;;;59.20;3.23;;;12.50;1.00;;;;;;5030970;28;20466;-70
2021/09/29 01:10:30;;;;;;;58.33;2.80;;;12.50;1.00;;;;;;5030719;28;20533;-70
2021/09/29 01:13:04;;;;;;;58.70;2.83;;;12.40;1.00;;;;;;5031073;28;20540;-70
2021/09/29 01:15:34;;;;;;;58.47;2.83;;;12.40;1.00;;;;;;5031020;28;21006;-70
2021/09/29 01:18:07;;;;;;;58.80;3.30;;;12.40;1.00;;;;;;5031260;28;20623;-70
2021/09/29 01:20:37;;;;;;;58.57;3.10;;;12.40;1.00;;;;;;5031177;28;21040;-70
2021/09/29 01:23:24;;;;;;;58.77;3.20;;;12.40;1.00;;;;;;5030857;28;20489;-70
2021/09/29 01:25:56;;;;;;;58.80;3.10;;;12.40;1.00;;;;;;5030785;28;20815;-70
2021/09/29 01:28:28;;;;;;;58.60;2.80;;;12.40;1.00;;;;;;5031093;28;20833;-70
2021/09/29 01:30:55;;;;;;;58.17;2.70;;;12.40;1.00;;;;;;5031096;28;20548;-70
2021/09/29 01:33:23;;;;;;;58.27;2.80;;;12.40;1.00;;;;;;5030689;28;20532;-71
2021/09/29 01:35:50;;;;;;;58.50;2.80;;;12.40;1.00;;;;;;5030415;28;20559;-70
2021/09/29 01:38:17;;;;;;;58.40;2.70;;;12.40;1.00;;;;;;5030679;28;20918;-70
2021/09/29 01:40:44;;;;;;;58.50;2.73;;;12.30;1.00;;;;;;5030660;28;20583;-70
2021/09/29 01:43:11;;;;;;;58.60;2.70;;;12.30;1.00;;;;;;5030887;28;20532;-71
2021/09/29 01:45:39;;;;;;;58.43;2.80;;;12.30;1.00;;;;;;5030316;28;20449;-70
2021/09/29 01:48:06;;;;;;;58.70;3.20;;;12.30;1.00;;;;;;5030444;28;20472;-70
2021/09/29 01:50:35;;;;;;;58.57;2.90;;;12.30;1.00;;;;;;5030313;28;20481;-70
2021/09/29 01:53:03;;;;;;;58.47;2.93;;;12.30;1.00;;;;;;5030473;28;20449;-70
2021/09/29 01:55:32;;;;;;;58.13;2.90;;;12.20;1.00;;;;;;5029148;28;20885;-70
2021/09/29 01:57:59;;;;;;;58.47;2.70;;;12.20;1.00;;;;;;5030229;28;20556;-70
2021/09/29 02:00:26;;;;;;;58.43;2.67;;;12.20;1.00;;;;;;5030526;28;20571;-70
2021/09/29 02:02:56;;;;;;;58.40;2.73;;;12.20;1.00;;;;;;5030755;28;20456;-70
2021/09/29 02:05:29;;;;;;;58.27;2.83;;;12.20;1.00;;;;;;5030363;28;20450;-70
2021/09/29 02:07:56;;;;;;;58.47;2.80;;;12.20;1.00;;;;;;5030269;28;20984;-70
2021/09/29 02:10:23;;;;;;;58.63;2.70;;;12.20;1.00;;;;;;5030219;28;20446;-70
2021/09/29 02:12:50;;;;;;;58.27;2.90;;;12.20;1.00;;;;;;5030347;28;20469;-70
2021/09/29 02:15:17;;;;;;;58.17;2.73;;;12.20;1.00;;;;;;5030148;28;20549;-70
2021/09/29 02:17:44;;;;;;;58.33;2.60;;;12.20;1.00;;;;;;5029901;28;20476;-70
2021/09/29 02:20:14;;;;;;;58.17;2.60;;;12.20;1.00;;;;;;5030301;28;20484;-70
2021/09/29 02:22:41;;;;;;;58.40;2.70;;;12.30;1.00;;;;;;5028899;28;20881;-70
2021/09/29 02:25:09;;;;;;;58.27;2.60;;;12.30;1.00;;;;;;5029804;28;20535;-70
2021/09/29 02:27:37;;;;;;;58.17;2.60;;;12.40;1.00;;;;;;5029774;28;20500;-70
2021/09/29 02:30:06;;;;;;;58.03;2.60;;;12.50;1.00;;;;;;5030161;28;20489;-70
2021/09/29 02:32:33;;;;;;;58.40;2.60;;;12.50;1.00;;;;;;5029791;28;21040;-70
2021/09/29 02:35:00;;;;;;;58.47;2.80;;;12.60;1.00;;;;;;5029980;28;20536;-70
2021/09/29 02:37:29;;;;;;;58.20;2.60;;;12.60;1.00;;;;;;5029205;28;20557;-70
2021/09/29 02:39:55;;;;;;;58.27;2.93;;;12.60;1.00;;;;;;5030040;28;20456;-70
2021/09/29 02:42:22;;;;;;;58.27;2.50;;;12.60;1.00;;;;;;5029770;28;20492;-70
2021/09/29 02:44:49;;;;;;;58.20;2.60;;;12.60;1.00;;;;;;5029805;28;20531;-70
2021/09/29 02:47:16;;;;;;;58.37;2.60;;;12.70;1.00;;;;;;5029287;28;20522;-70
2021/09/29 02:49:43;;;;;;;58.20;3.00;;;12.70;1.00;;;;;;5029729;28;20451;-70
2021/09/29 02:52:10;;;;;;;58.37;2.77;;;12.70;1.00;;;;;;5029542;28;20945;-70
2021/09/29 02:54:38;;;;;;;58.07;2.50;;;12.80;1.00;;;;;;5029834;28;20886;-70
2021/09/29 02:57:05;;;;;;;59.40;3.70;;;12.80;1.00;;;;;;5029548;28;20500;-70
2021/09/29 02:59:32;;;;;;;58.10;2.40;;;12.80;1.00;;;;;;5029682;28;20626;-70
2021/09/29 03:01:59;;;;;;;58.50;3.00;;;12.90;1.00;;;;;;5029404;28;21058;-70
2021/09/29 03:04:25;;;;;;;58.17;2.70;;;12.90;1.00;;;;;;5029538;28;20884;-70
2021/09/29 03:06:52;;;;;;;58.33;2.60;;;12.90;1.00;;;;;;5029128;28;20544;-69
2021/09/29 03:09:19;;;;;;;58.70;3.67;;;12.90;1.00;;;;;;5029293;28;20484;-70
2021/09/29 03:11:47;;;;;;;58.17;2.60;;;13.00;1.00;;;;;;5029267;28;20449;-70
2021/09/29 03:14:14;;;;;;;58.17;2.60;;;13.00;1.00;;;;;;5029460;28;20506;-70
2021/09/29 03:16:41;;;;;;;58.17;2.60;;;13.00;1.00;;;;;;5028933;28;20949;-70
2021/09/29 03:19:08;;;;;;;58.13;2.50;;;13.00;1.00;;;;;;5029090;28;20894;-70
2021/09/29 03:21:35;;;;;;;58.23;2.90;;;13.00;1.00;;;;;;5029080;28;21047;-70
2021/09/29 03:24:02;;;;;;;58.70;3.00;;;13.00;1.00;;;;;;5029327;28;20872;-70
2021/09/29 03:26:29;;;;;;;58.70;3.10;;;13.00;1.00;;;;;;5028894;28;20533;-70
2021/09/29 03:28:57;;;;;;;58.23;2.70;;;13.10;1.00;;;;;;5029109;28;20556;-70
2021/09/29 03:31:24;;;;;;;58.30;2.90;;;13.10;1.00;;;;;;5029003;28;20465;-70
2021/09/29 03:33:54;;;;;;;58.07;2.40;;;13.10;1.00;;;;;;5028666;28;20486;-70
2021/09/29 03:36:21;;;;;;;58.40;2.70;;;13.10;1.00;;;;;;5028964;28;20453;-70
2021/09/29 03:38:47;;;;;;;58.10;2.53;;;13.10;1.00;;;;;;5028882;28;20505;-70
2021/09/29 03:41:14;;;;;;;58.60;3.17;;;13.10;1.00;;;;;;5028918;28;20508;-70
2021/09/29 03:43:41;;;;;;;58.07;2.60;;;13.10;1.00;;;;;;5028899;28;21027;-70
2021/09/29 03:46:09;;;;;;;58.23;2.93;;;13.10;1.00;;;;;;5028471;28;20493;-70
2021/09/29 03:48:40;;;;;;;58.47;2.90;;;13.20;1.00;;;;;;5029428;28;20565;-70
2021/09/29 03:51:07;;;;;;;58.10;2.93;;;13.20;1.00;;;;;;5028973;28;20462;-70
2021/09/29 03:53:34;;;;;;;58.20;2.90;;;13.20;1.00;;;;;;5028668;28;20971;-70
2021/09/29 03:56:01;;;;;;;58.17;2.53;;;13.20;1.00;;;;;;5028230;28;20451;-70
2021/09/29 03:58:28;;;;;;;58.17;2.63;;;13.20;1.00;;;;;;5028748;28;20565;-70
2021/09/29 04:00:55;;;;;;;58.03;2.70;;;13.20;1.00;;;;;;5028475;28;20483;-70
2021/09/29 04:03:23;;;;;;;58.37;2.90;;;13.20;1.00;;;;;;5028704;28;20532;-70
2021/09/29 04:05:50;;;;;;;58.37;2.90;;;13.20;1.00;;;;;;5028295;28;20536;-69
2021/09/29 04:08:17;;;;;;;58.83;3.80;;;13.30;1.00;;;;;;5028658;28;20915;-70
2021/09/29 04:10:44;;;;;;;58.13;2.80;;;13.30;1.00;;;;;;5028628;28;20946;-70
2021/09/29 04:13:11;;;;;;;58.30;3.10;;;13.30;1.00;;;;;;5028489;28;20466;-70
2021/09/29 04:15:37;;;;;;;58.20;2.90;;;13.30;1.00;;;;;;5028488;28;20544;-70
2021/09/29 04:18:05;;;;;;;58.30;3.10;;;13.30;1.00;;;;;;5028397;28;20523;-70
2021/09/29 04:20:33;;;;;;;58.07;2.73;;;13.30;1.00;;;;;;5028522;28;20449;-70
2021/09/29 04:23:00;;;;;;;58.23;2.80;;;13.40;1.00;;;;;;5028741;28;20864;-70
2021/09/29 04:25:27;;;;;;;58.47;2.83;;;13.30;1.00;;;;;;5028164;28;20454;-70
2021/09/29 04:27:54;;;;;;;58.20;2.90;;;13.40;1.00;;;;;;5028136;28;20476;-70
2021/09/29 04:30:21;;;;;;;58.20;2.40;;;13.30;1.00;;;;;;5028597;28;20471;-70
2021/09/29 04:32:48;;;;;;;58.10;2.70;;;13.40;1.00;;;;;;5028581;28;20461;-70
2021/09/29 04:35:15;;;;;;;58.30;3.10;;;13.30;1.00;;;;;;5027791;28;20986;-70
2021/09/29 04:37:43;;;;;;;58.40;3.10;;;13.30;1.00;;;;;;5027772;28;20921;-70
2021/09/29 04:40:11;;;;;;;59.53;3.97;;;13.40;1.00;;;;;;5027977;28;20536;-70
2021/09/29 04:42:37;;;;;;;58.17;2.60;;;13.30;1.00;;;;;;5028383;28;20499;-70
2021/09/29 04:45:06;;;;;;;58.00;2.70;;;13.30;1.00;;;;;;5027403;28;20456;-70
2021/09/29 04:47:33;;;;;;;58.27;2.73;;;13.30;1.00;;;;;;5031294;28;20522;-70
2021/09/29 04:50:00;;;;;;;58.37;2.77;;;13.20;1.00;;;;;;5031365;28;21044;-71
2021/09/29 04:52:27;;;;;;;58.37;3.07;;;13.20;1.00;;;;;;5031390;28;20445;-69
2021/09/29 04:54:55;;;;;;;58.40;3.00;;;13.10;1.00;;;;;;5030490;28;20537;-69
2021/09/29 04:57:22;;;;;;;58.20;2.70;;;13.10;1.00;;;;;;5031177;28;20504;-69
2021/09/29 04:59:49;;;;;;;58.37;2.70;;;13.00;1.00;;;;;;5031274;28;20451;-70
2021/09/29 05:02:16;;;;;;;58.30;2.90;;;13.00;1.00;;;;;;5031230;28;20480;-70
2021/09/29 05:04:43;;;;;;;58.97;2.80;;;13.00;1.00;;;;;;5030960;28;20457;-69
2021/09/29 05:07:17;;;;;;;58.40;3.03;;;13.00;1.00;;;;;;5030042;28;20479;-69
2021/09/29 05:09:44;;;;;;;58.27;2.90;;;12.90;1.00;;;;;;5031118;28;20452;-70
2021/09/29 05:12:21;;;;;;;58.07;3.03;;;12.90;1.00;;;;;;5031116;28;21137;-70
2021/09/29 05:14:48;;;;;;;57.87;2.57;;;12.80;1.00;;;;;;5030895;28;20994;-69
2021/09/29 05:17:14;;;;;;;59.67;3.40;;;12.70;1.00;;;;;;5030377;28;20465;-70
2021/09/29 05:19:41;;;;;;;58.03;2.60;;;12.60;1.00;;;;;;5031045;28;20539;-70
2021/09/29 05:22:08;;;;;;;58.27;2.80;;;12.60;1.00;;;;;;5030903;28;21050;-70
2021/09/29 05:24:35;;;;;;;58.23;2.70;;;12.60;1.00;;;;;;5031363;28;20464;-70
2021/09/29 05:27:02;;;;;;;58.40;2.77;;;12.50;1.00;;;;;;5030716;28;20537;-70
2021/09/29 05:29:31;;;;;;;57.87;2.50;;;12.50;1.00;;;;;;5029477;28;20803;-70
2021/09/29 05:31:58;;;;;;;57.97;2.40;;;12.50;1.00;;;;;;5029383;28;20933;-70
2021/09/29 05:34:25;;;;;;;58.40;2.90;;;12.50;1.00;;;;;;5029411;28;20445;-70
2021/09/29 05:36:52;;;;;;;58.47;2.70;;;12.40;1.00;;;;;;5028751;28;20449;-70
2021/09/29 05:39:19;;;;;;;58.17;2.70;;;12.40;1.00;;;;;;5029380;28;20633;-70
2021/09/29 05:41:46;;;;;;;58.40;2.70;;;12.40;1.00;;;;;;5028814;28;20567;-70
2021/09/29 05:44:13;;;;;;;58.37;3.37;;;12.40;1.00;;;;;;5029070;28;20544;-70
2021/09/29 05:46:41;;;;;;;58.37;2.67;;;12.30;1.00;;;;;;5028600;28;20446;-70
2021/09/29 05:49:08;;;;;;;58.20;2.93;;;12.30;1.00;;;;;;5030454;28;20555;-70
2021/09/29 05:51:35;;;;;;;58.37;2.70;;;12.30;1.00;;;;;;5031065;28;20448;-70
2021/09/29 05:54:02;;;;;;;58.23;2.50;;;12.30;1.00;;;;;;5030568;28;20957;-70
2021/09/29 05:56:29;;;;;;;58.27;2.70;;;12.30;1.00;;;;;;5029995;28;20536;-70
2021/09/29 05:58:56;;;;;;;58.27;3.00;;;12.20;1.00;;;;;;5029151;28;20921;-70
2021/09/29 06:01:22;;;;;;;58.57;3.10;;;12.20;1.00;;;;;;5029361;28;21018;-70
2021/09/29 06:03:50;;;;;;;58.13;2.70;;;12.20;1.00;;;;;;5028633;28;20455;-70
2021/09/29 06:06:17;;;;;;;58.20;2.60;;;12.20;1.00;;;;;;5028458;28;20843;-70
2021/09/29 06:08:44;;;;;;;58.60;3.20;;;12.20;1.00;;;;;;5028857;28;20513;-70
2021/09/29 06:11:11;;;;;;;58.33;2.90;;;12.20;1.00;;;;;;5028783;28;20532;-70
2021/09/29 06:13:38;;;;;;;58.67;3.30;;;12.20;1.00;;;;;;5028678;28;20473;-70
2021/09/29 06:16:08;;;;;;;58.13;2.80;;;12.30;1.00;;;;;;5028134;28;20453;-70
2021/09/29 06:18:35;;;;;;;58.13;2.70;;;12.40;1.00;;;;;;5029848;28;20526;-71
2021/09/29 06:21:06;;;;;;;58.17;2.63;;;12.40;1.00;;;;;;5030281;28;20967;-70
2021/09/29 06:23:34;;;;;;;58.30;3.00;;;12.50;1.00;;;;;;5030162;28;20486;-71
2021/09/29 06:26:02;;;;;;;58.17;2.63;;;12.60;1.00;;;;;;5029927;28;20451;-71
2021/09/29 06:28:32;;;;;;;58.50;2.70;;;12.70;1.00;;;;;;5029005;28;20477;-71
2021/09/29 06:30:58;;;;;;;58.23;2.70;;;12.70;1.00;;;;;;5028121;28;20552;-70
2021/09/29 06:33:25;;;;;;;57.77;2.73;;;12.80;1.00;;;;;;5028613;28;20457;-71
2021/09/29 06:35:52;;;;;;;58.37;3.07;;;12.90;1.00;;;;;;5028025;28;20490;-71
2021/09/29 06:38:20;;;;;;;58.10;2.70;;;13.00;1.00;;;;;;5028435;28;20562;-70
2021/09/29 06:40:47;;;;;;;58.13;2.63;;;13.20;1.00;;;;;;5028421;28;20548;-70
2021/09/29 06:43:14;;;;;;;58.20;2.57;;;13.30;1.00;;;;;;5028080;28;20477;-70
2021/09/29 06:45:41;;;;;;;58.27;2.47;;;13.40;1.00;;;;;;5028101;28;20481;-70
2021/09/29 06:48:08;;;;;;;58.20;2.60;;;13.40;1.00;;;;;;5028338;28;20845;-71
2021/09/29 06:50:35;;;;;;;58.13;2.57;;;13.50;1.00;;;;;;5029603;28;20511;-71
2021/09/29 06:53:02;;;;;;;58.23;2.67;;;13.50;1.00;;;;;;5029630;28;20452;-71
2021/09/29 06:55:30;;;;;;;58.37;2.90;;;13.50;1.00;;;;;;5029852;28;20451;-70
2021/09/29 06:57:57;;;;;;;58.07;2.57;;;13.50;1.00;;;;;;5028746;28;20980;-70
2021/09/29 07:00:26;;;;;;;58.30;2.57;;;13.50;1.00;;;;;;5028209;28;20448;-70
2021/09/29 07:02:52;;;;;;;58.03;2.60;;;13.50;1.00;;;;;;5028018;28;20534;-71
2021/09/29 07:05:19;;;;;;;57.77;2.50;;;13.60;1.00;;;;;;5027868;28;20522;-71
2021/09/29 07:07:46;;;;;;;57.93;2.70;;;13.60;1.00;;;;;;5027526;28;20478;-69
2021/09/29 07:10:14;;;;;;;57.83;2.53;;;13.60;1.00;;;;;;5027309;28;20603;-70
2021/09/29 07:12:44;;;;;;;57.87;2.57;;;13.70;1.00;;;;;;5027981;28;20530;-70
2021/09/29 07:15:13;;;;;;;58.00;2.80;;;13.70;1.00;;;;;;5027786;28;20995;-70
2021/09/29 07:17:40;;;;;;;58.23;2.60;;;13.90;1.00;;;;;;5027273;28;20502;-69
2021/09/29 07:20:10;;;;;;;58.23;2.80;;;14.00;1.00;;;;;;5029243;28;20449;-70
2021/09/29 07:22:37;;;;;;;58.10;2.90;;;14.10;1.00;;;;;;5029135;28;20488;-70
2021/09/29 07:25:05;;;;;;;57.80;2.43;;;14.20;1.00;;;;;;5029063;28;21066;-69
2021/09/29 07:27:32;;;;;;;58.00;2.77;;;14.40;1.00;;;;;;5028799;28;20469;-70
2021/09/29 07:30:00;;;;;;;57.97;2.60;;;14.50;1.00;;;;;;5100215;27;20492;-69
2021/09/29 07:32:27;;;;;;;58.03;2.50;;;14.60;1.00;;;;;;5151107;27;20436;-69
2021/09/29 07:34:54;;;;;;;57.67;2.40;;;14.70;1.00;;;;;;5151279;27;20488;-69
2021/09/29 07:37:21;;;;;;;57.87;2.43;;;14.70;1.00;;;;;;5150974;27;20462;-69
2021/09/29 07:39:47;;;;;;;57.87;2.20;;;14.80;1.00;;;;;;5151175;27;20488;-69
2021/09/29 07:42:14;;;;;;;57.63;2.30;;;14.80;1.00;;;;;;5151409;27;20549;-69
2021/09/29 07:44:41;;;;;;;58.03;2.47;;;15.00;1.00;;;;;;5151165;27;20893;-68
2021/09/29 07:47:10;;;;;;;57.90;2.43;;;15.10;1.00;;;;;;5150749;27;20446;-69
2021/09/29 07:49:37;;;;;;;57.80;2.57;;;15.20;1.00;;;;;;5152325;27;21023;-69
2021/09/29 07:52:04;;;;;;;57.83;2.60;;;15.40;1.00;;;;;;5049024;27;20451;-70
2021/09/29 07:54:31;;;;;;;57.93;2.20;;;15.40;1.00;;;;;;5028448;28;20455;-70
2021/09/29 07:56:58;;;;;;;57.93;2.40;;;15.50;1.00;;;;;;5028093;28;20543;-69
2021/09/29 07:59:25;;;;;;;57.77;2.47;;;15.60;1.00;;;;;;5027609;28;20538;-70
2021/09/29 08:01:52;;;;;;;58.07;2.57;;;15.80;1.00;;;;;;5026312;28;20538;-69
2021/09/29 08:04:21;;;;;;;57.90;2.60;;;16.10;1.00;;;;;;5026803;28;20525;-69
2021/09/29 08:06:49;;;;;;;57.87;2.40;;;16.30;1.00;;;;;;5026507;28;21045;-69
2021/09/29 08:09:16;;;;;;;58.77;2.87;;;16.50;1.00;;;;;;5027136;28;20491;-67
2021/09/29 08:11:43;;;;;;;57.77;2.27;;;16.60;1.00;;;;;;5026841;28;20535;-66
2021/09/29 08:14:10;;;;;;;57.97;2.30;;;16.60;1.00;;;;;;5026753;28;20455;-68
2021/09/29 08:16:37;;;;;;;58.27;2.50;;;16.60;1.00;;;;;;5026674;28;20708;-68
2021/09/29 08:19:04;;;;;;;58.17;2.50;;;16.60;1.00;;;;;;5027323;28;20566;-69
2021/09/29 08:21:34;;;;;;;58.10;2.27;;;16.60;1.00;;;;;;5030642;28;20449;-68
2021/09/29 08:24:06;;;;;;;58.07;2.90;;;16.60;1.00;;;;;;5031988;27;20494;-69
2021/09/29 08:26:48;;;;;;;58.30;2.70;;;16.60;1.00;;;;;;5031707;28;20838;-69
2021/09/29 08:32:14;;;;;;;57.93;2.20;;;16.70;1.00;;;;;;5044768;28;20587;-69
2021/09/29 08:34:46;;;;;;;57.97;2.40;;;16.70;1.00;;;;;;5029197;28;20503;-69
2021/09/29 08:40:09;;;;;;;58.07;2.20;;;16.80;1.00;;;;;;5034635;27;20443;-69
2021/09/29 08:42:43;;;;;;;57.77;2.30;;;16.80;1.00;;;;;;5030284;28;20545;-69
2021/09/29 08:45:15;;;;;;;57.87;2.20;;;16.90;1.00;;;;;;5029751;28;20519;-69
2021/09/29 08:47:48;;;;;;;58.07;2.40;;;17.00;1.00;;;;;;5029161;28;21124;-69
2021/09/29 08:50:24;;;;;;;57.77;2.30;;;17.00;1.00;;;;;;5031065;28;20452;-69
2021/09/29 08:53:10;;;;;;;58.07;2.30;;;17.10;1.00;;;;;;5031869;28;20455;-69
2021/09/29 09:15:39;;;;;;;57.77;2.73;;;17.70;1.00;;;;;;5049368;28;20804;-69
2021/09/29 09:18:06;;;;;;;57.60;2.30;;;17.80;1.00;;;;;;5049269;28;20922;-69
2021/09/29 09:20:36;;;;;;;57.90;2.20;;;17.90;1.00;;;;;;5050851;28;20442;-69
2021/09/29 09:23:03;;;;;;;57.67;2.30;;;18.00;1.00;;;;;;5050942;27;20845;-70
2021/09/29 09:25:38;;;;;;;57.97;2.40;;;18.00;1.00;;;;;;5050163;28;20885;-69
2021/09/29 09:28:06;;;;;;;57.97;2.33;;;18.20;1.00;;;;;;5050734;27;20482;-70
2021/09/29 09:30:35;;;;;;;58.20;2.47;;;18.30;1.00;;;;;;5049126;28;20562;-70
2021/09/29 09:33:02;;;;;;;58.00;2.20;;;18.50;1.00;;;;;;5048498;28;20487;-70
2021/09/29 09:35:42;;;;;;;57.77;2.40;;;18.80;1.00;;;;;;5048766;28;20841;-69
2021/09/29 09:38:15;;;;;;;57.97;2.00;;;19.00;1.00;;;;;;5049018;28;20552;-69
2021/09/29 09:40:44;;;;;;;58.10;2.40;;;19.70;1.00;;;;;;5048826;28;20452;-71
2021/09/29 09:43:12;;;;;;;58.00;2.30;;;20.20;1.00;;;;;;5048843;28;20489;-70
2021/09/29 09:45:42;;;;;;;58.07;2.27;;;20.70;1.00;;;;;;5048513;28;20542;-70
2021/09/29 09:48:24;;;;;;;57.87;2.30;;;21.20;1.00;;;;;;5048800;28;20563;-70
2021/09/29 09:50:55;;;;;;;59.63;4.10;;;21.30;1.00;;;;;;5050185;28;20799;-70
2021/09/29 09:53:22;;;;;;;57.87;2.40;;;21.50;1.00;;;;;;5050403;28;20453;-70
2021/09/29 09:55:51;;;;;;;58.27;2.30;;;21.90;1.00;;;;;;5050187;28;20461;-70
2021/09/29 09:58:18;;;;;;;57.67;2.20;;;22.00;1.00;;;;;;5048488;27;20468;-69
2021/09/29 10:00:45;;;;;;;57.40;2.20;;;21.90;1.00;;;;;;5048854;28;20830;-69
2021/09/29 10:03:14;;;;;;;57.97;2.10;;;22.00;1.00;;;;;;5048201;28;20476;-69
2021/09/29 10:05:42;;;;;;;57.87;2.20;;;21.90;1.00;;;;;;5048303;28;20452;-70
2021/09/29 10:08:13;;;;;;;57.77;2.30;;;21.40;1.00;;;;;;5048293;27;20473;-69
2021/09/29 10:10:50;;;;;;;57.53;2.20;;;20.90;1.00;;;;;;5048004;28;20458;-69
2021/09/29 10:27:20;;;;;;;57.97;2.30;;;20.60;1.00;;;;;;5049122;28;20985;-70
2021/09/29 10:29:51;;;;;;;57.77;2.20;;;20.80;1.00;;;;;;5071653;27;20475;-70
2021/09/29 10:32:21;;;;;;;57.63;2.10;;;21.30;1.00;;;;;;5153085;27;20438;-70
2021/09/29 10:34:58;;;;;;;57.77;2.30;;;22.30;1.00;;;;;;5152359;27;20499;-70
2021/09/29 10:37:51;;;;;;;57.67;2.30;;;22.60;1.00;;;;;;5152637;27;20483;-70
2021/09/29 10:40:31;;;;;;;58.10;2.40;;;22.50;1.00;;;;;;5153381;27;20471;-70
2021/09/29 10:43:01;;;;;;;57.73;2.30;;;22.10;1.00;;;;;;5151453;27;20474;-70
2021/09/29 10:45:45;;;;;;;57.50;2.27;;;21.90;1.00;;;;;;5152137;27;20446;-70
2021/09/29 10:48:39;;;;;;;57.37;2.30;;;21.80;1.00;;;;;;5152395;27;20939;-70
2021/09/29 11:11:27;;;;;;;57.57;2.40;;;19.30;1.00;;;;;;5047296;28;20429;-70
2021/09/29 11:28:03;;;;;;;57.70;2.40;;;21.10;1.00;;;;;;5048281;28;20448;-70
2021/09/29 11:30:33;;;;;;;57.97;2.20;;;22.70;1.00;;;;;;5047876;28;20485;-70
2021/09/29 11:33:03;;;;;;;57.67;2.20;;;24.70;1.00;;;;;;5046810;27;20812;-71
2021/09/29 11:35:43;;;;;;;57.73;2.13;;;25.90;1.00;;;;;;5047247;28;20474;-70
2021/09/29 12:08:46;;;;;;;58.40;2.97;;;23.50;1.00;;;;;;5049700;28;20455;-70
2021/09/29 12:11:19;;;;;;;57.73;2.17;;;23.80;1.00;;;;;;5050530;28;20450;-70
2021/09/29 12:13:51;;;;;;;57.57;2.40;;;23.60;1.00;;;;;;5049965;28;20448;-70
2021/09/29 12:16:29;;;;;;;57.73;2.30;;;23.50;1.00;;;;;;5048778;27;20563;-71
2021/09/29 12:19:01;;;;;;;57.93;2.33;;;23.20;1.00;;;;;;5049534;28;20567;-70
2021/09/29 12:21:40;;;;;;;57.27;2.30;;;23.20;1.00;;;;;;5051331;28;20508;-70
2021/09/29 12:24:10;;;;;;;57.83;2.40;;;24.50;1.00;;;;;;5051692;28;20480;-70
2021/09/29 12:26:49;;;;;;;57.17;2.30;;;25.70;1.00;;;;;;5051198;27;20504;-70
2021/09/29 12:29:25;;;;;;;57.27;2.10;;;27.40;1.00;;;;;;5051242;28;20535;-70
2021/09/29 12:34:31;;;;;;;57.40;1.93;;;29.50;1.00;;;;;;5049749;28;20412;-70
2021/09/29 12:37:09;;;;;;;57.20;1.90;;;29.60;1.00;;;;;;5049185;28;20452;-70
2021/09/29 12:39:38;;;;;;;57.43;2.20;;;30.20;1.00;;;;;;5049910;27;20868;-70
2021/09/29 12:42:06;;;;;;;57.37;2.00;;;30.70;1.00;;;;;;5049822;27;20449;-70
2021/09/29 12:44:33;;;;;;;57.60;1.90;;;30.30;1.00;;;;;;5049268;28;21027;-70
2021/09/29 12:47:12;;;;;;;57.37;1.90;;;29.40;1.00;;;;;;5049089;28;20550;-70
2021/09/29 12:49:38;;;;;;;57.27;1.90;;;28.80;1.00;;;;;;5049498;28;20452;-70
2021/09/29 12:52:11;;;;;;;57.30;2.00;;;29.20;1.00;;;;;;5050328;28;20475;-71
2021/09/29 12:54:45;;;;;;;58.83;3.03;;;28.80;1.00;;;;;;5051606;28;20451;-71
2021/09/29 12:57:12;;;;;;;57.77;2.03;;;28.10;1.00;;;;;;5051522;27;20474;-70
2021/09/29 12:59:39;;;;;;;58.20;2.20;;;27.30;1.00;;;;;;5051415;28;20542;-70
2021/09/29 13:02:06;;;;;;;57.80;1.90;;;26.30;1.00;;;;;;5049556;28;21036;-70
2021/09/29 13:04:33;;;;;;;57.63;2.20;;;25.40;1.00;;;;;;5048960;28;20479;-70
2021/09/29 13:07:00;;;;;;;56.73;2.20;;;24.60;1.00;;;;;;5047878;28;20555;-69
2021/09/29 13:09:26;;;;;;;57.77;2.10;;;24.00;1.00;;;;;;5048663;27;20539;-70
2021/09/29 13:11:55;;;;;;;57.57;2.20;;;23.40;1.00;;;;;;5049515;28;20531;-71
2021/09/29 13:14:21;;;;;;;57.87;2.30;;;22.90;1.00;;;;;;5049134;28;20576;-70
2021/09/29 13:16:48;;;;;;;58.03;2.40;;;22.50;1.00;;;;;;5048877;28;20535;-70
2021/09/29 13:19:18;;;;;;;57.47;2.70;;;22.40;1.00;;;;;;5049026;28;20566;-70
2021/09/29 13:21:51;;;;;;;57.97;2.50;;;22.40;1.00;;;;;;5050297;27;20449;-70
2021/09/29 13:24:23;;;;;;;58.07;2.30;;;22.30;1.00;;;;;;5051081;28;20527;-70
2021/09/29 13:37:48;;;;;;;58.07;2.87;;;23.90;1.00;;;;;;5048063;28;20492;-69
2021/09/29 13:40:15;;;;;;;57.90;2.20;;;23.20;1.00;;;;;;5048202;28;20470;-70
2021/09/29 13:42:42;;;;;;;57.97;2.30;;;22.80;1.00;;;;;;5091469;27;20446;-70
2021/09/29 13:45:11;;;;;;;58.10;2.50;;;22.50;1.00;;;;;;5153538;27;20514;-70
2021/09/29 13:47:38;;;;;;;57.53;2.30;;;22.10;1.00;;;;;;5153029;27;20543;-69
2021/09/29 13:50:06;;;;;;;57.67;2.57;;;21.50;1.00;;;;;;5152866;27;20477;-69
2021/09/29 13:52:33;;;;;;;57.67;2.37;;;21.10;1.00;;;;;;5154191;27;20798;-71
2021/09/29 13:55:03;;;;;;;58.00;2.20;;;20.70;1.00;;;;;;5155368;27;20527;-69
2021/09/29 13:57:34;;;;;;;57.90;2.40;;;20.20;1.00;;;;;;5154945;27;20501;-69
2021/09/29 14:00:17;;;;;;;57.97;2.23;;;19.80;1.00;;;;;;5155760;27;20539;-68
2021/09/29 14:03:05;;;;;;;58.07;2.60;;;19.20;1.00;;;;;;5153381;27;20451;-69
2021/09/29 14:30:15;;;;;;;58.13;2.50;;;17.20;1.00;;;;;;5049842;28;20469;-69
2021/09/29 14:32:55;;;;;;;58.27;2.73;;;16.90;1.00;;;;;;5049783;27;20958;-70
2021/09/29 14:35:24;;;;;;;58.40;2.60;;;16.60;1.00;;;;;;5049649;28;20945;-70
2021/09/29 14:37:51;;;;;;;58.23;2.50;;;16.40;1.00;;;;;;5049577;28;20540;-69
2021/09/29 14:40:19;;;;;;;58.33;2.50;;;16.20;1.00;;;;;;5049636;28;20455;-69
2021/09/29 14:42:47;;;;;;;58.40;2.37;;;16.00;1.00;;;;;;5049993;28;20514;-69
2021/09/29 14:45:13;;;;;;;58.27;2.70;;;15.90;1.00;;;;;;5048994;27;20486;-69
2021/09/29 14:47:40;;;;;;;58.33;2.50;;;15.80;1.00;;;;;;5049017;28;20474;-70
2021/09/29 14:50:08;;;;;;;58.07;2.30;;;15.60;1.00;;;;;;5049841;28;20831;-69
2021/09/29 14:52:36;;;;;;;58.27;2.67;;;15.50;1.00;;;;;;5049092;28;20493;-69
2021/09/29 14:55:03;;;;;;;58.23;2.50;;;15.40;1.00;;;;;;5049204;28;20526;-70
2021/09/29 14:57:30;;;;;;;58.43;2.57;;;15.30;1.00;;;;;;5049666;27;20476;-70
2021/09/29 14:59:57;;;;;;;58.37;2.50;;;15.20;1.00;;;;;;5049440;28;20473;-70
2021/09/29 15:02:24;;;;;;;58.23;2.60;;;15.10;1.00;;;;;;5049354;28;20540;-69
2021/09/29 15:04:50;;;;;;;58.13;2.40;;;15.00;1.00;;;;;;5048946;27;20597;-70
2021/09/29 15:07:17;;;;;;;58.27;2.60;;;15.00;1.00;;;;;;5048652;28;20581;-70
2021/09/29 15:09:45;;;;;;;58.07;2.80;;;14.90;1.00;;;;;;5049087;28;20882;-69
2021/09/29 15:12:12;;;;;;;58.33;2.80;;;14.90;1.00;;;;;;5049089;28;20525;-70
2021/09/29 15:14:52;;;;;;;58.27;2.67;;;14.80;1.00;;;;;;5049438;28;20442;-70
2021/09/29 15:17:28;;;;;;;58.30;2.70;;;14.80;1.00;;;;;;5047635;27;20469;-70
2021/09/29 15:19:58;;;;;;;58.40;2.70;;;14.70;1.00;;;;;;5049003;28;20820;-70